Laredo, TX

6:29 PM CDT on September 04, 2015 (GMT -0500)
Laredo International | | Change Station
CLOSE
Current Station
Airport
Location: Laredo,
Elevation: 509 ft
Nearby Weather Stations

Elev 509 ft 27.54 °N, 99.46 °W | Updated 33 minutes ago

Scattered Clouds
Scattered Clouds
100 °F
Feels Like 103 °F
N
13
Wind Variable Wind from SE

Today
High -- | Low -- °F
--% Chance of Precip.
Yesterday
High -- | Low -- °F
Precip. -- in
7:18 AM 7:55 PM
Waning Gibbous, 55% visible
Pressure 29.78 in
Visibility 10.0 miles
Clouds Few 4200 ft
Scattered Clouds 7500 ft
Heat Index 103 °F
Dew Point 65 °F
Humidity 32%
Rainfall 0.00 in
Snow Depth Not available.
UV 2 out of 12
Pollen 9.60 out of 12
Air Quality Not available.
Flu Activity Not available.
METAR KLRD 042256Z 13011KT 10SM FEW042 SCT075 38/18 A2981 RMK AO2 T03770183 SLP082
Pressure 29.78 in
Visibility 10.0 miles
Clouds Few 4200 ft
Scattered Clouds 7500 ft
Heat Index 103 °F
Dew Point 65 °F
Humidity 32%
Rainfall 0.00 in
Snow Depth Not available.
UV 2 out of 12
Pollen 9.60 out of 12
Air Quality Not available.
Flu Activity Not available.
METAR KLRD 042256Z 13011KT 10SM FEW042 SCT075 38/18 A2981 RMK AO2 T03770183 SLP082
Nowcast | as of 5:55 PM CDT on September 4, 2015

Isolated showers and thunderstorms will be possible through 7 PM CDT across portions of south Texas. The best concentration of showers will occur mainly to the north of an Encinal to George West line. Brief moderate to heavy rainfall and gusty winds up to 35 mph will be possible with the heavier showers. Rainfall amounts up to 1 inch will be possible but most areas will receive around one-tenth of an inch or less.

×

10-Day Weather Forecast

×

Almanac

Astronomy

Sep. 04, 2015 Rise Set
Actual Time
Civil Twilight
Nautical Twilight
Astronomical Twilight
Moon
Length of Visible Light
Length of Day
Tomorrow will be .
, % of the Moon is Illuminated

Today's Extremes

State Highs State Lows

Community

WunderPhotos

Upload Photos

1,852,332 photos uploaded!

WunderBlogs® & News

Nearby

Air Quality

  Air Quality AQ Index Pollutant
Not available.

Snow Depth

Station Depth Elevation

Earthquake Activity

City Distance Mag. Time & Date
Minimum magnitude displayed is 2.5.

Coastal Water Temperatures

Place Temperature

Stations

Nearby Weather Stations

Station Location Temp. Windchill Dew Point Humidity Wind Precip. Elev Updated Type